sensor_id;sensor_type;location;lat;lon;timestamp;P1;durP1;ratioP1;P2;durP2;ratioP2
2019;SDS011;1014;51.960;8.542;2023-06-04T00:02:00;21.93;;;20.73;;
2019;SDS011;1014;51.960;8.542;2023-06-04T00:04:29;22.10;;;20.87;;
2019;SDS011;1014;51.960;8.542;2023-06-04T00:06:56;21.70;;;20.60;;
2019;SDS011;1014;51.960;8.542;2023-06-04T00:09:23;22.00;;;20.80;;
2019;SDS011;1014;51.960;8.542;2023-06-04T00:11:50;21.60;;;20.40;;
2019;SDS011;1014;51.960;8.542;2023-06-04T00:14:17;21.47;;;20.37;;
2019;SDS011;1014;51.960;8.542;2023-06-04T00:16:44;21.63;;;20.53;;
2019;SDS011;1014;51.960;8.542;2023-06-04T00:19:11;21.80;;;20.50;;
2019;SDS011;1014;51.960;8.542;2023-06-04T00:21:39;21.10;;;20.00;;
2019;SDS011;1014;51.960;8.542;2023-06-04T00:24:06;21.97;;;20.57;;
2019;SDS011;1014;51.960;8.542;2023-06-04T00:26:33;23.10;;;21.87;;
2019;SDS011;1014;51.960;8.542;2023-06-04T00:29:00;21.80;;;20.43;;
2019;SDS011;1014;51.960;8.542;2023-06-04T00:31:27;21.77;;;20.47;;
2019;SDS011;1014;51.960;8.542;2023-06-04T00:33:54;22.43;;;21.23;;
2019;SDS011;1014;51.960;8.542;2023-06-04T00:36:21;21.70;;;20.50;;
2019;SDS011;1014;51.960;8.542;2023-06-04T00:38:50;20.80;;;19.80;;
2019;SDS011;1014;51.960;8.542;2023-06-04T00:41:17;20.73;;;19.73;;
2019;SDS011;1014;51.960;8.542;2023-06-04T00:43:44;22.17;;;20.97;;
2019;SDS011;1014;51.960;8.542;2023-06-04T00:46:21;21.80;;;20.70;;
2019;SDS011;1014;51.960;8.542;2023-06-04T00:48:48;22.83;;;21.53;;
2019;SDS011;1014;51.960;8.542;2023-06-04T00:51:15;21.40;;;20.30;;
2019;SDS011;1014;51.960;8.542;2023-06-04T00:53:42;21.63;;;20.53;;
2019;SDS011;1014;51.960;8.542;2023-06-04T00:56:11;22.07;;;20.87;;
2019;SDS011;1014;51.960;8.542;2023-06-04T00:58:38;22.00;;;20.90;;
2019;SDS011;1014;51.960;8.542;2023-06-04T01:01:09;22.07;;;20.97;;
2019;SDS011;1014;51.960;8.542;2023-06-04T01:03:39;20.87;;;19.77;;
2019;SDS011;1014;51.960;8.542;2023-06-04T01:06:10;21.80;;;20.70;;
2019;SDS011;1014;51.960;8.542;2023-06-04T01:08:40;21.80;;;20.70;;
2019;SDS011;1014;51.960;8.542;2023-06-04T01:11:08;22.10;;;20.73;;
2019;SDS011;1014;51.960;8.542;2023-06-04T01:13:36;21.57;;;20.00;;
2019;SDS011;1014;51.960;8.542;2023-06-04T01:16:03;21.70;;;20.40;;
2019;SDS011;1014;51.960;8.542;2023-06-04T01:18:31;21.70;;;20.60;;
2019;SDS011;1014;51.960;8.542;2023-06-04T01:21:02;21.80;;;20.70;;
2019;SDS011;1014;51.960;8.542;2023-06-04T01:23:32;21.50;;;20.40;;
2019;SDS011;1014;51.960;8.542;2023-06-04T01:26:00;22.23;;;21.03;;
2019;SDS011;1014;51.960;8.542;2023-06-04T01:28:28;22.30;;;21.10;;
2019;SDS011;1014;51.960;8.542;2023-06-04T01:30:57;21.53;;;20.43;;
2019;SDS011;1014;51.960;8.542;2023-06-04T01:33:27;22.00;;;20.90;;
2019;SDS011;1014;51.960;8.542;2023-06-04T01:35:54;21.87;;;20.63;;
2019;SDS011;1014;51.960;8.542;2023-06-04T01:38:21;21.80;;;20.60;;
2019;SDS011;1014;51.960;8.542;2023-06-04T01:40:48;22.97;;;21.70;;
2019;SDS011;1014;51.960;8.542;2023-06-04T01:43:18;22.87;;;21.57;;
2019;SDS011;1014;51.960;8.542;2023-06-04T01:45:45;23.00;;;21.80;;
2019;SDS011;1014;51.960;8.542;2023-06-04T01:48:13;21.50;;;20.40;;
2019;SDS011;1014;51.960;8.542;2023-06-04T01:50:40;21.80;;;20.70;;
2019;SDS011;1014;51.960;8.542;2023-06-04T01:53:07;22.10;;;20.90;;
2019;SDS011;1014;51.960;8.542;2023-06-04T01:55:34;22.20;;;20.80;;
2019;SDS011;1014;51.960;8.542;2023-06-04T01:58:02;22.10;;;20.90;;
2019;SDS011;1014;51.960;8.542;2023-06-04T02:00:30;21.50;;;20.30;;
2019;SDS011;1014;51.960;8.542;2023-06-04T02:02:57;21.33;;;20.10;;
2019;SDS011;1014;51.960;8.542;2023-06-04T02:05:25;21.53;;;20.43;;
2019;SDS011;1014;51.960;8.542;2023-06-04T02:07:52;21.40;;;20.20;;
2019;SDS011;1014;51.960;8.542;2023-06-04T02:10:20;21.90;;;20.80;;
2019;SDS011;1014;51.960;8.542;2023-06-04T02:12:54;21.90;;;20.70;;
2019;SDS011;1014;51.960;8.542;2023-06-04T02:15:22;22.17;;;21.07;;
2019;SDS011;1014;51.960;8.542;2023-06-04T02:17:49;22.73;;;20.90;;
2019;SDS011;1014;51.960;8.542;2023-06-04T02:20:16;21.33;;;20.23;;
2019;SDS011;1014;51.960;8.542;2023-06-04T02:22:44;22.00;;;20.80;;
2019;SDS011;1014;51.960;8.542;2023-06-04T02:25:12;21.17;;;20.07;;
2019;SDS011;1014;51.960;8.542;2023-06-04T02:27:40;21.90;;;20.80;;
2019;SDS011;1014;51.960;8.542;2023-06-04T02:30:07;21.70;;;20.50;;
2019;SDS011;1014;51.960;8.542;2023-06-04T02:32:35;21.60;;;20.30;;
2019;SDS011;1014;51.960;8.542;2023-06-04T02:35:02;21.77;;;20.57;;
2019;SDS011;1014;51.960;8.542;2023-06-04T02:37:29;22.30;;;21.10;;
2019;SDS011;1014;51.960;8.542;2023-06-04T02:39:58;22.10;;;20.90;;
2019;SDS011;1014;51.960;8.542;2023-06-04T02:42:24;21.63;;;20.53;;
2019;SDS011;1014;51.960;8.542;2023-06-04T02:44:51;22.53;;;21.23;;
2019;SDS011;1014;51.960;8.542;2023-06-04T02:47:18;21.50;;;20.40;;
2019;SDS011;1014;51.960;8.542;2023-06-04T02:49:45;21.87;;;20.67;;
2019;SDS011;1014;51.960;8.542;2023-06-04T02:52:13;21.60;;;20.50;;
2019;SDS011;1014;51.960;8.542;2023-06-04T02:54:40;21.33;;;20.13;;
2019;SDS011;1014;51.960;8.542;2023-06-04T02:57:08;22.13;;;20.80;;
2019;SDS011;1014;51.960;8.542;2023-06-04T02:59:35;21.83;;;20.63;;
2019;SDS011;1014;51.960;8.542;2023-06-04T03:02:03;20.93;;;19.83;;
2019;SDS011;1014;51.960;8.542;2023-06-04T03:04:30;21.93;;;20.73;;
2019;SDS011;1014;51.960;8.542;2023-06-04T03:06:59;21.57;;;20.37;;
2019;SDS011;1014;51.960;8.542;2023-06-04T03:09:27;21.87;;;20.67;;
2019;SDS011;1014;51.960;8.542;2023-06-04T03:11:54;22.77;;;21.57;;
2019;SDS011;1014;51.960;8.542;2023-06-04T03:14:22;21.57;;;20.47;;
2019;SDS011;1014;51.960;8.542;2023-06-04T03:16:57;22.00;;;20.80;;
2019;SDS011;1014;51.960;8.542;2023-06-04T03:19:26;22.57;;;21.27;;
2019;SDS011;1014;51.960;8.542;2023-06-04T03:21:53;21.67;;;20.47;;
2019;SDS011;1014;51.960;8.542;2023-06-04T03:24:21;21.40;;;20.20;;
2019;SDS011;1014;51.960;8.542;2023-06-04T03:26:48;21.53;;;20.33;;
2019;SDS011;1014;51.960;8.542;2023-06-04T03:29:15;22.37;;;21.17;;
2019;SDS011;1014;51.960;8.542;2023-06-04T03:31:45;22.03;;;20.73;;
2019;SDS011;1014;51.960;8.542;2023-06-04T03:34:12;21.50;;;20.40;;
2019;SDS011;1014;51.960;8.542;2023-06-04T03:36:39;21.90;;;20.63;;
2019;SDS011;1014;51.960;8.542;2023-06-04T03:39:06;22.40;;;21.20;;
2019;SDS011;1014;51.960;8.542;2023-06-04T03:41:33;22.80;;;21.60;;
2019;SDS011;1014;51.960;8.542;2023-06-04T03:44:00;21.57;;;20.47;;
2019;SDS011;1014;51.960;8.542;2023-06-04T03:46:27;20.50;;;19.33;;
2019;SDS011;1014;51.960;8.542;2023-06-04T03:48:58;21.50;;;20.20;;
2019;SDS011;1014;51.960;8.542;2023-06-04T03:51:25;21.17;;;20.00;;
2019;SDS011;1014;51.960;8.542;2023-06-04T03:53:52;21.27;;;20.17;;
2019;SDS011;1014;51.960;8.542;2023-06-04T03:56:19;20.97;;;19.87;;
2019;SDS011;1014;51.960;8.542;2023-06-04T03:58:46;21.20;;;20.00;;
2019;SDS011;1014;51.960;8.542;2023-06-04T04:01:13;21.60;;;20.40;;
2019;SDS011;1014;51.960;8.542;2023-06-04T04:03:40;21.13;;;20.03;;
2019;SDS011;1014;51.960;8.542;2023-06-04T04:06:09;20.93;;;19.83;;
2019;SDS011;1014;51.960;8.542;2023-06-04T04:08:36;20.00;;;18.90;;
2019;SDS011;1014;51.960;8.542;2023-06-04T04:11:07;20.43;;;19.33;;
2019;SDS011;1014;51.960;8.542;2023-06-04T04:13:34;20.93;;;19.70;;
2019;SDS011;1014;51.960;8.542;2023-06-04T04:16:01;21.13;;;20.03;;
2019;SDS011;1014;51.960;8.542;2023-06-04T04:18:28;21.13;;;20.03;;
2019;SDS011;1014;51.960;8.542;2023-06-04T04:20:55;21.57;;;20.37;;
2019;SDS011;1014;51.960;8.542;2023-06-04T04:23:24;21.77;;;20.57;;
2019;SDS011;1014;51.960;8.542;2023-06-04T04:25:52;21.17;;;20.07;;
2019;SDS011;1014;51.960;8.542;2023-06-04T04:28:21;20.33;;;19.13;;
2019;SDS011;1014;51.960;8.542;2023-06-04T04:30:48;21.33;;;20.23;;
2019;SDS011;1014;51.960;8.542;2023-06-04T04:33:15;21.03;;;19.93;;
2019;SDS011;1014;51.960;8.542;2023-06-04T04:35:44;21.27;;;20.10;;
2019;SDS011;1014;51.960;8.542;2023-06-04T04:38:13;21.50;;;20.30;;
2019;SDS011;1014;51.960;8.542;2023-06-04T04:40:43;20.70;;;19.60;;
2019;SDS011;1014;51.960;8.542;2023-06-04T04:43:12;21.30;;;20.00;;
2019;SDS011;1014;51.960;8.542;2023-06-04T04:45:39;20.83;;;19.63;;
2019;SDS011;1014;51.960;8.542;2023-06-04T04:48:06;20.37;;;19.27;;
2019;SDS011;1014;51.960;8.542;2023-06-04T04:50:33;20.57;;;19.47;;
2019;SDS011;1014;51.960;8.542;2023-06-04T04:53:00;22.00;;;20.63;;
2019;SDS011;1014;51.960;8.542;2023-06-04T04:55:27;21.60;;;20.40;;
2019;SDS011;1014;51.960;8.542;2023-06-04T04:57:55;22.20;;;21.00;;
2019;SDS011;1014;51.960;8.542;2023-06-04T05:00:22;20.90;;;19.63;;
2019;SDS011;1014;51.960;8.542;2023-06-04T05:02:49;21.23;;;20.03;;
2019;SDS011;1014;51.960;8.542;2023-06-04T05:05:16;20.70;;;19.60;;
2019;SDS011;1014;51.960;8.542;2023-06-04T05:07:43;20.60;;;19.40;;
2019;SDS011;1014;51.960;8.542;2023-06-04T05:10:10;21.10;;;19.90;;
2019;SDS011;1014;51.960;8.542;2023-06-04T05:12:37;21.60;;;20.40;;
2019;SDS011;1014;51.960;8.542;2023-06-04T05:15:07;21.50;;;20.30;;
2019;SDS011;1014;51.960;8.542;2023-06-04T05:17:37;21.23;;;20.03;;
2019;SDS011;1014;51.960;8.542;2023-06-04T05:20:05;21.27;;;19.90;;
2019;SDS011;1014;51.960;8.542;2023-06-04T05:22:36;20.43;;;19.23;;
2019;SDS011;1014;51.960;8.542;2023-06-04T05:25:03;21.10;;;19.90;;
2019;SDS011;1014;51.960;8.542;2023-06-04T05:27:31;21.67;;;20.27;;
2019;SDS011;1014;51.960;8.542;2023-06-04T05:29:58;20.73;;;19.53;;
2019;SDS011;1014;51.960;8.542;2023-06-04T05:32:27;20.80;;;19.70;;
2019;SDS011;1014;51.960;8.542;2023-06-04T05:34:56;21.10;;;19.90;;
2019;SDS011;1014;51.960;8.542;2023-06-04T05:37:23;21.03;;;19.63;;
2019;SDS011;1014;51.960;8.542;2023-06-04T05:39:52;20.77;;;19.67;;
2019;SDS011;1014;51.960;8.542;2023-06-04T05:42:19;20.57;;;19.47;;
2019;SDS011;1014;51.960;8.542;2023-06-04T05:44:46;20.83;;;19.70;;
2019;SDS011;1014;51.960;8.542;2023-06-04T05:47:13;20.50;;;19.40;;
2019;SDS011;1014;51.960;8.542;2023-06-04T05:49:41;21.10;;;19.73;;
2019;SDS011;1014;51.960;8.542;2023-06-04T05:52:08;21.63;;;20.33;;
2019;SDS011;1014;51.960;8.542;2023-06-04T05:54:35;22.10;;;20.90;;
2019;SDS011;1014;51.960;8.542;2023-06-04T05:57:03;21.40;;;20.07;;
2019;SDS011;1014;51.960;8.542;2023-06-04T05:59:30;20.53;;;19.43;;
2019;SDS011;1014;51.960;8.542;2023-06-04T06:01:57;21.23;;;20.07;;
2019;SDS011;1014;51.960;8.542;2023-06-04T06:04:24;21.57;;;20.37;;
2019;SDS011;1014;51.960;8.542;2023-06-04T06:06:53;21.60;;;20.40;;
2019;SDS011;1014;51.960;8.542;2023-06-04T06:09:20;22.43;;;21.13;;
2019;SDS011;1014;51.960;8.542;2023-06-04T06:11:47;21.10;;;20.00;;
2019;SDS011;1014;51.960;8.542;2023-06-04T06:14:14;21.53;;;20.33;;
2019;SDS011;1014;51.960;8.542;2023-06-04T06:16:41;22.00;;;20.70;;
2019;SDS011;1014;51.960;8.542;2023-06-04T06:19:08;21.23;;;20.03;;
2019;SDS011;1014;51.960;8.542;2023-06-04T06:21:36;21.97;;;20.60;;
2019;SDS011;1014;51.960;8.542;2023-06-04T06:24:04;21.77;;;20.47;;
2019;SDS011;1014;51.960;8.542;2023-06-04T06:26:31;21.80;;;20.50;;
2019;SDS011;1014;51.960;8.542;2023-06-04T06:28:59;21.83;;;20.53;;
2019;SDS011;1014;51.960;8.542;2023-06-04T06:31:26;21.40;;;20.20;;
2019;SDS011;1014;51.960;8.542;2023-06-04T06:33:53;22.30;;;20.43;;
2019;SDS011;1014;51.960;8.542;2023-06-04T06:36:20;21.63;;;20.23;;
2019;SDS011;1014;51.960;8.542;2023-06-04T06:38:47;21.30;;;20.10;;
2019;SDS011;1014;51.960;8.542;2023-06-04T06:41:16;21.40;;;20.10;;
2019;SDS011;1014;51.960;8.542;2023-06-04T06:43:43;21.53;;;20.23;;
2019;SDS011;1014;51.960;8.542;2023-06-04T06:46:10;21.00;;;19.80;;
2019;SDS011;1014;51.960;8.542;2023-06-04T06:48:37;21.67;;;20.37;;
2019;SDS011;1014;51.960;8.542;2023-06-04T06:51:04;21.43;;;20.13;;
2019;SDS011;1014;51.960;8.542;2023-06-04T06:53:31;22.27;;;20.97;;
2019;SDS011;1014;51.960;8.542;2023-06-04T06:55:58;21.40;;;20.10;;
2019;SDS011;1014;51.960;8.542;2023-06-04T06:58:26;22.60;;;21.20;;
2019;SDS011;1014;51.960;8.542;2023-06-04T07:00:53;22.50;;;21.10;;
2019;SDS011;1014;51.960;8.542;2023-06-04T07:03:21;21.87;;;20.60;;
2019;SDS011;1014;51.960;8.542;2023-06-04T07:05:48;23.80;;;21.57;;
2019;SDS011;1014;51.960;8.542;2023-06-04T07:08:15;21.60;;;20.40;;
2019;SDS011;1014;51.960;8.542;2023-06-04T07:10:42;22.23;;;20.90;;
2019;SDS011;1014;51.960;8.542;2023-06-04T07:13:09;22.33;;;20.93;;
2019;SDS011;1014;51.960;8.542;2023-06-04T07:15:38;22.33;;;21.07;;
2019;SDS011;1014;51.960;8.542;2023-06-04T07:18:05;22.40;;;21.10;;
2019;SDS011;1014;51.960;8.542;2023-06-04T07:20:32;22.60;;;21.30;;
2019;SDS011;1014;51.960;8.542;2023-06-04T07:22:59;22.63;;;21.10;;
2019;SDS011;1014;51.960;8.542;2023-06-04T07:25:26;22.20;;;21.00;;
2019;SDS011;1014;51.960;8.542;2023-06-04T07:27:53;22.37;;;20.97;;
2019;SDS011;1014;51.960;8.542;2023-06-04T07:30:22;22.70;;;21.20;;
2019;SDS011;1014;51.960;8.542;2023-06-04T07:32:51;22.00;;;20.70;;
2019;SDS011;1014;51.960;8.542;2023-06-04T07:35:18;22.87;;;21.57;;
2019;SDS011;1014;51.960;8.542;2023-06-04T07:37:45;21.93;;;20.73;;
2019;SDS011;1014;51.960;8.542;2023-06-04T07:40:14;21.60;;;20.40;;
2019;SDS011;1014;51.960;8.542;2023-06-04T07:42:41;22.80;;;21.40;;
2019;SDS011;1014;51.960;8.542;2023-06-04T07:45:09;22.37;;;21.07;;
2019;SDS011;1014;51.960;8.542;2023-06-04T07:47:36;22.80;;;21.40;;
2019;SDS011;1014;51.960;8.542;2023-06-04T07:50:05;22.27;;;20.97;;
2019;SDS011;1014;51.960;8.542;2023-06-04T07:52:32;24.63;;;23.10;;
2019;SDS011;1014;51.960;8.542;2023-06-04T07:55:00;23.13;;;21.70;;
2019;SDS011;1014;51.960;8.542;2023-06-04T07:57:27;23.00;;;21.70;;
2019;SDS011;1014;51.960;8.542;2023-06-04T07:59:54;23.10;;;21.70;;
2019;SDS011;1014;51.960;8.542;2023-06-04T08:02:21;23.37;;;21.90;;
2019;SDS011;1014;51.960;8.542;2023-06-04T08:04:48;22.67;;;21.23;;
2019;SDS011;1014;51.960;8.542;2023-06-04T08:07:17;22.70;;;21.37;;
2019;SDS011;1014;51.960;8.542;2023-06-04T08:09:44;23.10;;;21.70;;
2019;SDS011;1014;51.960;8.542;2023-06-04T08:12:11;22.87;;;21.27;;
2019;SDS011;1014;51.960;8.542;2023-06-04T08:14:38;22.47;;;21.07;;
2019;SDS011;1014;51.960;8.542;2023-06-04T08:17:05;22.60;;;21.20;;
2019;SDS011;1014;51.960;8.542;2023-06-04T08:19:32;22.93;;;21.53;;
2019;SDS011;1014;51.960;8.542;2023-06-04T08:22:00;23.20;;;21.90;;
2019;SDS011;1014;51.960;8.542;2023-06-04T08:24:28;23.10;;;21.50;;
2019;SDS011;1014;51.960;8.542;2023-06-04T08:26:55;23.17;;;21.87;;
2019;SDS011;1014;51.960;8.542;2023-06-04T08:29:22;23.00;;;21.50;;
2019;SDS011;1014;51.960;8.542;2023-06-04T08:31:49;23.63;;;22.33;;
2019;SDS011;1014;51.960;8.542;2023-06-04T08:34:16;23.37;;;22.07;;
2019;SDS011;1014;51.960;8.542;2023-06-04T08:36:44;24.97;;;23.47;;
2019;SDS011;1014;51.960;8.542;2023-06-04T08:39:11;23.73;;;22.33;;
2019;SDS011;1014;51.960;8.542;2023-06-04T08:41:41;24.67;;;23.17;;
2019;SDS011;1014;51.960;8.542;2023-06-04T08:44:09;23.67;;;22.07;;
2019;SDS011;1014;51.960;8.542;2023-06-04T08:46:37;24.20;;;22.80;;
2019;SDS011;1014;51.960;8.542;2023-06-04T08:49:05;23.93;;;22.53;;
2019;SDS011;1014;51.960;8.542;2023-06-04T08:51:33;24.33;;;22.83;;
2019;SDS011;1014;51.960;8.542;2023-06-04T08:54:02;23.77;;;22.27;;
2019;SDS011;1014;51.960;8.542;2023-06-04T08:56:30;23.83;;;22.43;;
2019;SDS011;1014;51.960;8.542;2023-06-04T08:59:01;23.80;;;22.40;;
2019;SDS011;1014;51.960;8.542;2023-06-04T09:01:28;24.30;;;22.60;;
2019;SDS011;1014;51.960;8.542;2023-06-04T09:03:56;23.20;;;21.83;;
2019;SDS011;1014;51.960;8.542;2023-06-04T09:06:24;23.50;;;21.93;;
2019;SDS011;1014;51.960;8.542;2023-06-04T09:08:51;23.53;;;22.00;;
2019;SDS011;1014;51.960;8.542;2023-06-04T09:11:19;23.80;;;22.17;;
2019;SDS011;1014;51.960;8.542;2023-06-04T09:13:47;23.60;;;22.10;;
2019;SDS011;1014;51.960;8.542;2023-06-04T09:16:16;25.63;;;23.20;;
2019;SDS011;1014;51.960;8.542;2023-06-04T09:18:43;24.17;;;22.33;;
2019;SDS011;1014;51.960;8.542;2023-06-04T09:21:11;24.33;;;22.73;;
2019;SDS011;1014;51.960;8.542;2023-06-04T09:23:43;23.67;;;22.30;;
2019;SDS011;1014;51.960;8.542;2023-06-04T09:26:10;24.80;;;23.27;;
2019;SDS011;1014;51.960;8.542;2023-06-04T09:28:39;24.83;;;23.23;;
2019;SDS011;1014;51.960;8.542;2023-06-04T09:31:07;23.73;;;22.23;;
2019;SDS011;1014;51.960;8.542;2023-06-04T09:33:42;23.67;;;22.10;;
2019;SDS011;1014;51.960;8.542;2023-06-04T09:36:10;23.70;;;22.20;;
2019;SDS011;1014;51.960;8.542;2023-06-04T09:38:37;24.33;;;22.90;;
2019;SDS011;1014;51.960;8.542;2023-06-04T09:41:04;23.10;;;21.80;;
2019;SDS011;1014;51.960;8.542;2023-06-04T09:43:31;23.97;;;22.57;;
2019;SDS011;1014;51.960;8.542;2023-06-04T09:46:08;24.87;;;23.37;;
2019;SDS011;1014;51.960;8.542;2023-06-04T09:48:35;24.53;;;23.03;;
2019;SDS011;1014;51.960;8.542;2023-06-04T09:51:07;24.80;;;23.30;;
2019;SDS011;1014;51.960;8.542;2023-06-04T09:53:34;24.07;;;22.57;;
2019;SDS011;1014;51.960;8.542;2023-06-04T09:56:02;24.00;;;22.50;;
2019;SDS011;1014;51.960;8.542;2023-06-04T09:58:29;23.73;;;22.33;;
2019;SDS011;1014;51.960;8.542;2023-06-04T10:00:57;24.53;;;23.00;;
2019;SDS011;1014;51.960;8.542;2023-06-04T10:03:25;24.37;;;22.87;;
2019;SDS011;1014;51.960;8.542;2023-06-04T10:05:53;24.73;;;23.23;;
2019;SDS011;1014;51.960;8.542;2023-06-04T10:08:22;24.23;;;22.83;;
2019;SDS011;1014;51.960;8.542;2023-06-04T10:10:49;25.47;;;23.97;;
2019;SDS011;1014;51.960;8.542;2023-06-04T10:13:17;25.87;;;24.27;;
2019;SDS011;1014;51.960;8.542;2023-06-04T10:15:44;24.60;;;23.10;;
2019;SDS011;1014;51.960;8.542;2023-06-04T10:18:12;25.73;;;23.90;;
2019;SDS011;1014;51.960;8.542;2023-06-04T10:20:40;25.33;;;23.83;;
2019;SDS011;1014;51.960;8.542;2023-06-04T10:23:07;25.50;;;24.00;;
2019;SDS011;1014;51.960;8.542;2023-06-04T10:25:36;25.37;;;23.97;;
2019;SDS011;1014;51.960;8.542;2023-06-04T10:28:03;26.40;;;24.80;;
2019;SDS011;1014;51.960;8.542;2023-06-04T10:30:30;25.83;;;24.00;;
2019;SDS011;1014;51.960;8.542;2023-06-04T10:32:58;25.10;;;23.70;;
2019;SDS011;1014;51.960;8.542;2023-06-04T10:35:31;24.47;;;23.10;;
2019;SDS011;1014;51.960;8.542;2023-06-04T10:38:05;24.57;;;23.00;;
2019;SDS011;1014;51.960;8.542;2023-06-04T10:40:33;24.70;;;23.20;;
2019;SDS011;1014;51.960;8.542;2023-06-04T10:43:05;25.23;;;23.73;;
2019;SDS011;1014;51.960;8.542;2023-06-04T10:45:32;24.03;;;22.53;;
2019;SDS011;1014;51.960;8.542;2023-06-04T10:48:00;24.23;;;22.73;;
2019;SDS011;1014;51.960;8.542;2023-06-04T10:50:27;26.67;;;24.97;;
2019;SDS011;1014;51.960;8.542;2023-06-04T10:52:54;23.60;;;22.20;;
2019;SDS011;1014;51.960;8.542;2023-06-04T10:55:22;23.60;;;22.20;;
2019;SDS011;1014;51.960;8.542;2023-06-04T10:57:53;27.70;;;26.00;;
2019;SDS011;1014;51.960;8.542;2023-06-04T11:00:22;24.93;;;23.10;;
2019;SDS011;1014;51.960;8.542;2023-06-04T11:02:50;24.63;;;23.13;;
2019;SDS011;1014;51.960;8.542;2023-06-04T11:05:17;25.00;;;23.40;;
2019;SDS011;1014;51.960;8.542;2023-06-04T11:07:45;24.87;;;23.40;;
2019;SDS011;1014;51.960;8.542;2023-06-04T11:10:12;24.47;;;22.93;;
2019;SDS011;1014;51.960;8.542;2023-06-04T11:12:43;23.60;;;22.23;;
2019;SDS011;1014;51.960;8.542;2023-06-04T11:15:10;24.07;;;22.67;;
2019;SDS011;1014;51.960;8.542;2023-06-04T11:17:39;24.10;;;22.70;;
2019;SDS011;1014;51.960;8.542;2023-06-04T11:20:15;22.90;;;21.63;;
2019;SDS011;1014;51.960;8.542;2023-06-04T11:22:49;23.50;;;22.20;;
2019;SDS011;1014;51.960;8.542;2023-06-04T11:25:16;22.93;;;21.63;;
2019;SDS011;1014;51.960;8.542;2023-06-04T11:27:44;23.30;;;21.97;;
2019;SDS011;1014;51.960;8.542;2023-06-04T11:30:11;23.17;;;21.67;;
2019;SDS011;1014;51.960;8.542;2023-06-04T11:32:40;24.10;;;22.57;;
2019;SDS011;1014;51.960;8.542;2023-06-04T11:35:07;23.30;;;21.97;;
2019;SDS011;1014;51.960;8.542;2023-06-04T11:37:36;23.60;;;22.00;;
2019;SDS011;1014;51.960;8.542;2023-06-04T11:40:14;24.07;;;22.60;;
2019;SDS011;1014;51.960;8.542;2023-06-04T11:42:42;24.63;;;23.07;;
2019;SDS011;1014;51.960;8.542;2023-06-04T11:45:09;24.37;;;22.80;;
2019;SDS011;1014;51.960;8.542;2023-06-04T11:47:36;23.17;;;21.77;;
2019;SDS011;1014;51.960;8.542;2023-06-04T11:50:05;23.07;;;21.70;;
2019;SDS011;1014;51.960;8.542;2023-06-04T11:52:33;23.17;;;21.80;;
2019;SDS011;1014;51.960;8.542;2023-06-04T11:55:00;22.40;;;21.10;;
2019;SDS011;1014;51.960;8.542;2023-06-04T11:57:28;22.73;;;21.23;;
2019;SDS011;1014;51.960;8.542;2023-06-04T11:59:56;23.07;;;21.67;;
2019;SDS011;1014;51.960;8.542;2023-06-04T12:02:23;23.27;;;21.87;;
2019;SDS011;1014;51.960;8.542;2023-06-04T12:04:50;23.00;;;21.60;;
2019;SDS011;1014;51.960;8.542;2023-06-04T12:07:20;22.20;;;20.90;;
2019;SDS011;1014;51.960;8.542;2023-06-04T12:09:49;22.93;;;21.53;;
2019;SDS011;1014;51.960;8.542;2023-06-04T12:12:21;23.70;;;22.30;;
2019;SDS011;1014;51.960;8.542;2023-06-04T12:14:55;22.70;;;21.20;;
2019;SDS011;1014;51.960;8.542;2023-06-04T12:17:22;22.67;;;21.33;;
2019;SDS011;1014;51.960;8.542;2023-06-04T12:19:50;23.37;;;21.97;;
2019;SDS011;1014;51.960;8.542;2023-06-04T12:22:17;23.80;;;22.40;;
2019;SDS011;1014;51.960;8.542;2023-06-04T12:24:49;24.13;;;22.63;;
2019;SDS011;1014;51.960;8.542;2023-06-04T12:27:18;24.00;;;22.50;;
2019;SDS011;1014;51.960;8.542;2023-06-04T12:29:53;24.07;;;22.37;;
2019;SDS011;1014;51.960;8.542;2023-06-04T12:32:20;23.30;;;22.00;;
2019;SDS011;1014;51.960;8.542;2023-06-04T12:34:47;24.10;;;22.10;;
2019;SDS011;1014;51.960;8.542;2023-06-04T12:37:14;23.07;;;21.77;;
2019;SDS011;1014;51.960;8.542;2023-06-04T12:39:41;23.37;;;22.00;;
2019;SDS011;1014;51.960;8.542;2023-06-04T12:42:10;23.73;;;22.20;;
2019;SDS011;1014;51.960;8.542;2023-06-04T12:44:37;23.10;;;21.70;;
2019;SDS011;1014;51.960;8.542;2023-06-04T12:47:05;23.37;;;22.07;;
2019;SDS011;1014;51.960;8.542;2023-06-04T12:49:32;23.07;;;21.40;;
2019;SDS011;1014;51.960;8.542;2023-06-04T12:51:59;24.20;;;22.80;;
2019;SDS011;1014;51.960;8.542;2023-06-04T12:54:26;24.60;;;23.20;;
2019;SDS011;1014;51.960;8.542;2023-06-04T12:56:53;23.00;;;21.60;;
2019;SDS011;1014;51.960;8.542;2023-06-04T12:59:22;23.30;;;21.80;;
2019;SDS011;1014;51.960;8.542;2023-06-04T13:01:50;23.07;;;21.77;;
2019;SDS011;1014;51.960;8.542;2023-06-04T13:04:17;23.00;;;21.70;;
2019;SDS011;1014;51.960;8.542;2023-06-04T13:06:44;25.00;;;23.50;;
2019;SDS011;1014;51.960;8.542;2023-06-04T13:09:12;22.47;;;21.27;;
2019;SDS011;1014;51.960;8.542;2023-06-04T13:11:39;24.10;;;22.70;;
2019;SDS011;1014;51.960;8.542;2023-06-04T13:14:07;24.10;;;22.60;;
2019;SDS011;1014;51.960;8.542;2023-06-04T13:16:35;24.30;;;22.63;;
2019;SDS011;1014;51.960;8.542;2023-06-04T13:19:03;24.23;;;22.63;;
2019;SDS011;1014;51.960;8.542;2023-06-04T13:21:33;24.97;;;23.47;;
2019;SDS011;1014;51.960;8.542;2023-06-04T13:24:01;24.83;;;23.43;;
2019;SDS011;1014;51.960;8.542;2023-06-04T13:26:28;24.13;;;22.73;;
2019;SDS011;1014;51.960;8.542;2023-06-04T13:28:55;23.63;;;22.33;;
2019;SDS011;1014;51.960;8.542;2023-06-04T13:31:22;24.40;;;22.90;;
2019;SDS011;1014;51.960;8.542;2023-06-04T13:33:50;24.17;;;22.80;;
2019;SDS011;1014;51.960;8.542;2023-06-04T13:36:17;24.50;;;23.10;;
2019;SDS011;1014;51.960;8.542;2023-06-04T13:38:44;25.07;;;23.63;;
2019;SDS011;1014;51.960;8.542;2023-06-04T13:41:12;24.53;;;23.17;;
2019;SDS011;1014;51.960;8.542;2023-06-04T13:43:39;25.20;;;23.70;;
2019;SDS011;1014;51.960;8.542;2023-06-04T13:46:06;24.40;;;22.90;;
2019;SDS011;1014;51.960;8.542;2023-06-04T13:48:33;24.00;;;22.70;;
2019;SDS011;1014;51.960;8.542;2023-06-04T13:51:01;23.73;;;22.43;;
2019;SDS011;1014;51.960;8.542;2023-06-04T13:53:31;24.43;;;23.03;;
2019;SDS011;1014;51.960;8.542;2023-06-04T13:55:58;23.80;;;22.40;;
2019;SDS011;1014;51.960;8.542;2023-06-04T13:58:25;23.67;;;22.37;;
2019;SDS011;1014;51.960;8.542;2023-06-04T14:00:52;23.40;;;22.07;;
2019;SDS011;1014;51.960;8.542;2023-06-04T14:03:20;23.10;;;21.80;;
2019;SDS011;1014;51.960;8.542;2023-06-04T14:05:47;23.00;;;21.70;;
2019;SDS011;1014;51.960;8.542;2023-06-04T14:08:15;33.37;;;30.47;;
2019;SDS011;1014;51.960;8.542;2023-06-04T14:10:42;29.77;;;27.27;;
2019;SDS011;1014;51.960;8.542;2023-06-04T14:13:09;23.20;;;21.30;;
2019;SDS011;1014;51.960;8.542;2023-06-04T14:15:37;22.70;;;21.30;;
2019;SDS011;1014;51.960;8.542;2023-06-04T14:18:04;22.87;;;21.37;;
2019;SDS011;1014;51.960;8.542;2023-06-04T14:20:32;22.30;;;21.00;;
2019;SDS011;1014;51.960;8.542;2023-06-04T14:23:00;22.27;;;20.97;;
2019;SDS011;1014;51.960;8.542;2023-06-04T14:25:28;23.03;;;21.60;;
2019;SDS011;1014;51.960;8.542;2023-06-04T14:27:57;22.90;;;21.60;;
2019;SDS011;1014;51.960;8.542;2023-06-04T14:30:24;23.73;;;22.33;;
2019;SDS011;1014;51.960;8.542;2023-06-04T14:32:51;23.23;;;21.93;;
2019;SDS011;1014;51.960;8.542;2023-06-04T14:35:18;23.60;;;22.10;;
2019;SDS011;1014;51.960;8.542;2023-06-04T14:37:45;23.60;;;22.20;;
2019;SDS011;1014;51.960;8.542;2023-06-04T14:40:13;23.77;;;22.37;;
2019;SDS011;1014;51.960;8.542;2023-06-04T14:42:41;23.83;;;22.43;;
2019;SDS011;1014;51.960;8.542;2023-06-04T14:45:08;23.20;;;21.73;;
2019;SDS011;1014;51.960;8.542;2023-06-04T14:47:35;23.83;;;22.37;;
2019;SDS011;1014;51.960;8.542;2023-06-04T14:50:03;23.80;;;22.33;;
2019;SDS011;1014;51.960;8.542;2023-06-04T14:52:30;23.80;;;22.23;;